»·PEaware :: N22SF KEWR-KJFK

N22SF :: KEWR-KJFK

FLIGHT INFORMATION

Flight Status: Arrived
Operator: Privately registered:
United States
More flights under this callsign
Pilot: Anonymous 18904 (18904)
Aircraft: CANADAIR CL-600 CHALLENGER
(CL60)
More flights by this aircraft type
Origin: KEWR Newark Intl
United States
Destination: KJFK Kennedy Intl
United States
More flights between these airports :: More routes between these airports
Route: EWR4 BREZY V39 CMK V419 JUDDS NELIE MAD V1 DPK
File this flight plan on PilotEdge
Remarks: RMK / SIMBRIEF
Altitude:
(Current/Filed)
11,000ft
Speed:
(Current/Filed)
386kts
Departed: 07-Dec-22 12:31 PM
Arrived: 07-Dec-22 01:13 PM
Distance/Time
Traveled:
17nm/0:42
Distance/Time
To Go:
Arrived

Flight Plot

Page will automatically refresh every two minutes.

Flight plan parsing failed; only flown route is shown


Map Options




Map Legend


Flown Route
Filed Route
Departure Airport
Arrival Airport
Navaid (VOR, NDB)
Fix

Horizontal Profiles

Position Reports

Time Latitude Longitude Heading Altitude Ground
Speed
07-Dec-22 12:15 40.706026 -74.169639 359 26ft 0kts
07-Dec-22 12:16 40.706026 -74.169639 359 26ft 0kts
07-Dec-22 12:17 40.706026 -74.169639 359 26ft 0kts
07-Dec-22 12:18 40.706026 -74.169639 359 26ft 0kts
07-Dec-22 12:19 40.706026 -74.169639 359 26ft 0kts
07-Dec-22 12:20 40.706026 -74.169639 359 26ft 0kts
07-Dec-22 12:21 40.706026 -74.169639 359 26ft 0kts
07-Dec-22 12:22 40.705557 -74.169249 116 26ft 12kts
07-Dec-22 12:24 40.704872 -74.168308 151 26ft 0kts
07-Dec-22 12:25 40.703023 -74.168470 268 26ft 12kts
07-Dec-22 12:26 40.703433 -74.173371 276 26ft 5kts
07-Dec-22 12:27 40.703599 -74.178041 275 26ft 15kts
07-Dec-22 12:28 40.703672 -74.179179 274 26ft 0kts
07-Dec-22 12:29 40.703673 -74.179179 274 26ft 0kts
07-Dec-22 12:30 40.703686 -74.179458 273 26ft 0kts
07-Dec-22 12:31 40.702479 -74.175842 95 26ft 93kts
07-Dec-22 12:32 40.716728 -74.113305 48 3188ft 238kts
07-Dec-22 12:33 40.769664 -74.040949 15 4983ft 286kts
07-Dec-22 12:34 40.814776 -74.095869 277 5008ft 249kts
07-Dec-22 12:35 40.850408 -74.169480 345 6497ft 303kts
07-Dec-22 12:36 40.935748 -74.179098 2 10975ft 357kts
07-Dec-22 12:37 41.035379 -74.155438 20 10988ft 368kts
07-Dec-22 12:38 41.099217 -74.045744 59 11004ft 397kts
07-Dec-22 12:39 41.152376 -73.912146 61 11000ft 409kts
07-Dec-22 12:40 41.204984 -73.776795 61 11004ft 409kts
07-Dec-22 12:41 41.257185 -73.641349 61 11004ft 409kts
07-Dec-22 12:42 41.325012 -73.521110 42 11006ft 404kts
07-Dec-22 12:43 41.405414 -73.414192 42 11004ft 408kts
07-Dec-22 12:44 41.485528 -73.306929 42 11001ft 410kts
07-Dec-22 12:44 41.553603 -73.216205 42 11004ft 410kts
07-Dec-22 12:46 41.648438 -73.089780 42 11003ft 410kts
07-Dec-22 12:47 41.728838 -72.980135 43 11004ft 410kts
07-Dec-22 12:48 41.809063 -72.870229 44 11003ft 410kts
07-Dec-22 12:48 41.823672 -72.751233 120 11002ft 410kts
07-Dec-22 12:49 41.738823 -72.653455 146 11010ft 401kts
07-Dec-22 12:51 41.630094 -72.561135 176 10995ft 387kts
07-Dec-22 12:51 41.544733 -72.585763 201 11008ft 375kts
07-Dec-22 12:52 41.445233 -72.630828 202 11004ft 375kts
07-Dec-22 12:53 41.352571 -72.673947 203 11031ft 306kts
07-Dec-22 12:55 41.276157 -72.738842 223 10670ft 274kts
07-Dec-22 12:55 41.228205 -72.793788 224 10025ft 268kts
07-Dec-22 12:56 41.171923 -72.859838 224 10004ft 269kts
07-Dec-22 12:57 41.115432 -72.926222 224 10005ft 269kts
07-Dec-22 12:58 41.058917 -72.992488 224 10004ft 269kts
07-Dec-22 12:59 41.002591 -73.058395 224 9553ft 267kts
07-Dec-22 13:00 40.947070 -73.123194 224 8549ft 262kts
07-Dec-22 13:01 40.892544 -73.186689 224 7547ft 257kts
07-Dec-22 13:02 40.838767 -73.249172 223 6539ft 253kts
07-Dec-22 13:03 40.790023 -73.314417 256 5902ft 248kts
07-Dec-22 13:04 40.798955 -73.405448 277 4945ft 248kts
07-Dec-22 13:05 40.810757 -73.494289 272 4037ft 226kts
07-Dec-22 13:06 40.789823 -73.563531 241 4008ft 200kts
07-Dec-22 13:07 40.761770 -73.627724 240 3031ft 197kts
07-Dec-22 13:08 40.723056 -73.672273 220 2045ft 158kts
07-Dec-22 13:09 40.689891 -73.711126 230 1089ft 152kts
07-Dec-22 13:10 40.668185 -73.748926 222 557ft 122kts
07-Dec-22 13:11 40.639319 -73.772073 212 22ft 112kts
07-Dec-22 13:12 40.631290 -73.779094 300 20ft 1kts
07-Dec-22 13:13 40.633829 -73.782369 354 20ft 11kts
07-Dec-22 13:14 40.636518 -73.787827 301 20ft 58kts
07-Dec-22 13:15 40.642846 -73.800610 297 20ft 39kts
07-Dec-22 13:16 40.647827 -73.811233 313 20ft 21kts
07-Dec-22 13:17 40.648892 -73.810166 73 20ft 0kts
07-Dec-22 13:18 40.648892 -73.810166 73 20ft 0kts
07-Dec-22 13:19 40.648892 -73.810167 73 20ft 0kts
07-Dec-22 13:20 40.648892 -73.810167 73 20ft 0kts
07-Dec-22 13:21 40.648892 -73.810167 73 20ft 0kts
07-Dec-22 13:22 40.648892 -73.810167 73 20ft 0kts
07-Dec-22 13:23 40.648892 -73.810167 73 20ft 0kts
07-Dec-22 13:24 40.648892 -73.810167 73 20ft 0kts
07-Dec-22 13:25 40.648892 -73.810167 73 20ft 0kts

Navigation Log

Ident Type
Flight plan parsing failed, navigation log unavailable